createdAt,value
2023-04-08T00:00:08.691Z,87.21
2023-04-08T00:01:02.217Z,87.32
2023-04-08T00:01:54.112Z,87.07
2023-04-08T00:02:45.884Z,86.85
2023-04-08T00:03:37.887Z,87.18
2023-04-08T00:04:31.769Z,87.35
2023-04-08T00:05:23.274Z,87.20
2023-04-08T00:06:14.699Z,87.28
2023-04-08T00:07:06.304Z,86.92
2023-04-08T00:07:57.738Z,87.11
2023-04-08T00:08:49.516Z,87.20
2023-04-08T00:09:41.369Z,87.56
2023-04-08T00:10:33.602Z,87.41
2023-04-08T00:11:25.204Z,87.27
2023-04-08T00:12:16.675Z,87.12
2023-04-08T00:13:08.084Z,87.44
2023-04-08T00:14:00.193Z,87.22
2023-04-08T00:14:52.323Z,87.45
2023-04-08T00:15:46.239Z,87.45
2023-04-08T00:16:37.651Z,87.23
2023-04-08T00:17:29.222Z,87.42
2023-04-08T00:18:20.832Z,87.26
2023-04-08T00:19:12.413Z,87.23
2023-04-08T00:20:04.812Z,87.40
2023-04-08T00:20:57.301Z,87.42
2023-04-08T00:21:48.862Z,87.43
2023-04-08T00:22:40.294Z,87.57
2023-04-08T00:23:31.721Z,87.56
2023-04-08T00:24:25.573Z,87.71
2023-04-08T00:25:19.582Z,87.89
2023-04-08T00:26:11.134Z,87.81
2023-04-08T00:27:05.604Z,87.94
2023-04-08T00:28:00.299Z,87.81
2023-04-08T00:28:53.609Z,87.64
2023-04-08T00:29:45.144Z,87.69
2023-04-08T00:30:37.057Z,87.86
2023-04-08T00:31:31.360Z,87.69
2023-04-08T00:32:23.854Z,87.71
2023-04-08T00:33:17.523Z,87.56
2023-04-08T00:34:09.058Z,87.88
2023-04-08T00:35:00.519Z,87.82
2023-04-08T00:35:52.748Z,87.90
2023-04-08T00:36:45.562Z,87.88
2023-04-08T00:37:37.438Z,87.73
2023-04-08T00:38:28.900Z,87.92
2023-04-08T00:39:20.300Z,87.98
2023-04-08T00:40:12.603Z,87.83
2023-04-08T00:41:04.068Z,87.54
2023-04-08T00:41:56.410Z,87.46
2023-04-08T00:42:48.413Z,87.50
2023-04-08T00:43:40.102Z,87.45
2023-04-08T00:44:32.440Z,87.63
2023-04-08T00:45:23.959Z,87.52
2023-04-08T00:46:16.124Z,87.71
2023-04-08T00:47:10.035Z,87.27
2023-04-08T00:48:03.596Z,87.64
2023-04-08T00:48:55.971Z,87.41
2023-04-08T00:49:47.467Z,87.58
2023-04-08T00:50:38.858Z,87.49
2023-04-08T00:51:36.282Z,87.49
2023-04-08T00:52:27.896Z,87.55
2023-04-08T00:53:19.836Z,87.31
2023-04-08T00:54:14.438Z,87.28
2023-04-08T00:55:08.815Z,87.17
2023-04-08T00:56:01.265Z,87.24
2023-04-08T00:56:53.015Z,87.22
2023-04-08T00:57:45.571Z,87.48
2023-04-08T00:58:38.996Z,87.31
2023-04-08T00:59:34.319Z,87.12
2023-04-08T01:00:29.494Z,87.23
2023-04-08T01:01:47.864Z,87.24
2023-04-08T01:03:01.137Z,87.02
2023-04-08T01:04:22.269Z,87.08
2023-04-08T01:05:41.993Z,87.27
2023-04-08T01:07:12.210Z,86.68
2023-04-08T01:08:10.125Z,86.74
2023-04-08T01:09:05.941Z,86.93
2023-04-08T01:10:15.795Z,87.22
2023-04-08T01:11:13.754Z,87.08
2023-04-08T01:12:09.449Z,86.94
2023-04-08T01:13:12.174Z,87.10
2023-04-08T01:14:10.126Z,87.41
2023-04-08T01:15:08.173Z,87.25
2023-04-08T01:15:59.856Z,87.05
2023-04-08T01:16:56.868Z,86.85
2023-04-08T01:17:53.702Z,86.77
2023-04-08T01:18:48.985Z,86.99
2023-04-08T01:19:44.705Z,87.28
2023-04-08T01:20:38.715Z,87.08
2023-04-08T01:21:30.670Z,87.42
2023-04-08T01:22:32.821Z,87.42
2023-04-08T01:23:53.114Z,87.37
2023-04-08T01:24:47.347Z,87.66
2023-04-08T01:25:39.749Z,87.72
2023-04-08T01:26:32.459Z,87.60
2023-04-08T01:27:24.766Z,87.32
2023-04-08T01:28:26.699Z,87.67
2023-04-08T01:29:19.653Z,87.78
2023-04-08T01:30:13.718Z,87.73
2023-04-08T01:31:07.473Z,87.26
2023-04-08T01:32:01.881Z,87.58
2023-04-08T01:32:56.126Z,87.37
2023-04-08T01:33:50.688Z,87.67
2023-04-08T01:34:44.867Z,87.57
2023-04-08T01:35:37.605Z,87.58
2023-04-08T01:36:32.698Z,87.77
2023-04-08T01:37:28.275Z,87.81
2023-04-08T01:38:21.164Z,87.67
2023-04-08T01:39:17.362Z,87.72
2023-04-08T01:40:18.474Z,87.83
2023-04-08T01:41:11.496Z,88.03
2023-04-08T01:42:03.852Z,87.83
2023-04-08T01:43:00.967Z,88.11
2023-04-08T01:43:54.574Z,88.02
2023-04-08T01:44:47.842Z,88.44
2023-04-08T01:45:43.883Z,88.74
2023-04-08T01:46:36.345Z,88.79
2023-04-08T01:47:29.971Z,89.17
2023-04-08T01:48:23.632Z,89.31
2023-04-08T01:49:17.510Z,89.34
2023-04-08T01:50:10.732Z,89.87
2023-04-08T01:51:05.469Z,89.88
2023-04-08T01:52:00.317Z,89.92
2023-04-08T01:52:54.364Z,89.87
2023-04-08T01:53:46.340Z,90.20
2023-04-08T01:54:38.131Z,90.67
2023-04-08T01:55:31.991Z,90.88
2023-04-08T01:56:29.047Z,91.17
2023-04-08T01:57:27.315Z,91.41
2023-04-08T01:58:22.510Z,91.83
2023-04-08T01:59:16.983Z,91.72
2023-04-08T02:00:12.310Z,92.09
2023-04-08T02:01:27.015Z,92.50
2023-04-08T02:02:22.609Z,92.95
2023-04-08T02:03:18.803Z,93.04
2023-04-08T02:04:12.854Z,93.49
2023-04-08T02:05:04.850Z,93.47
2023-04-08T02:05:56.366Z,93.65
2023-04-08T02:06:48.449Z,94.08
2023-04-08T02:07:40.380Z,93.91
2023-04-08T02:08:36.939Z,94.13
2023-04-08T02:09:28.527Z,94.41
2023-04-08T02:10:20.256Z,94.63
2023-04-08T02:11:12.594Z,94.71
2023-04-08T02:12:04.616Z,94.89
2023-04-08T02:12:57.043Z,95.24
2023-04-08T02:13:49.220Z,94.96
2023-04-08T02:14:41.001Z,95.15
2023-04-08T02:15:42.009Z,95.28
2023-04-08T02:16:50.105Z,95.27
2023-04-08T02:17:43.906Z,95.27
2023-04-08T02:18:42.826Z,95.46
2023-04-08T02:19:46.835Z,95.63
2023-04-08T02:20:44.296Z,95.71
2023-04-08T02:21:47.309Z,96.03
2023-04-08T02:22:48.741Z,96.18
2023-04-08T02:23:42.776Z,96.11
2023-04-08T02:24:37.307Z,96.33
2023-04-08T02:25:30.600Z,96.33
2023-04-08T02:26:24.528Z,96.17
2023-04-08T02:27:17.506Z,96.55
2023-04-08T02:28:12.538Z,96.46
2023-04-08T02:29:05.802Z,96.48
2023-04-08T02:29:59.900Z,96.83
2023-04-08T02:30:53.292Z,96.50
2023-04-08T02:31:47.026Z,96.66
2023-04-08T02:32:40.292Z,96.68
2023-04-08T02:33:36.681Z,96.83
2023-04-08T02:34:30.767Z,96.67
2023-04-08T02:35:23.731Z,96.61
2023-04-08T02:36:16.472Z,96.89
2023-04-08T02:37:09.181Z,96.91
2023-04-08T02:38:03.211Z,97.02
2023-04-08T02:38:54.922Z,96.80
2023-04-08T02:39:47.721Z,96.94
2023-04-08T02:40:39.315Z,96.83
2023-04-08T02:41:31.404Z,96.77
2023-04-08T02:42:24.986Z,96.88
2023-04-08T02:43:19.904Z,96.87
2023-04-08T02:44:11.379Z,96.98
2023-04-08T02:45:06.400Z,96.90
2023-04-08T02:46:00.397Z,97.17
2023-04-08T02:46:51.944Z,97.02
2023-04-08T02:47:43.416Z,97.18
2023-04-08T02:48:34.861Z,97.08
2023-04-08T02:49:26.527Z,97.04
2023-04-08T02:50:18.048Z,97.17
2023-04-08T02:51:09.584Z,97.11
2023-04-08T02:52:01.387Z,96.95
2023-04-08T02:52:53.099Z,97.25
2023-04-08T02:53:44.544Z,97.09
2023-04-08T02:54:36.216Z,96.94
2023-04-08T02:55:30.770Z,96.96
2023-04-08T02:56:25.597Z,97.00
2023-04-08T02:57:17.429Z,97.09
2023-04-08T02:58:08.965Z,96.81
2023-04-08T02:59:00.808Z,97.02
2023-04-08T02:59:52.285Z,96.98
2023-04-08T03:00:44.181Z,96.71
2023-04-08T03:01:36.165Z,97.02
2023-04-08T03:02:27.819Z,97.06
2023-04-08T03:03:23.186Z,96.90
2023-04-08T03:04:14.754Z,97.12
2023-04-08T03:05:06.685Z,96.96
2023-04-08T03:05:58.767Z,97.26
2023-04-08T03:06:50.183Z,97.04
2023-04-08T03:07:41.613Z,97.24
2023-04-08T03:08:33.632Z,97.11
2023-04-08T03:09:28.133Z,97.32
2023-04-08T03:10:19.863Z,97.08
2023-04-08T03:11:11.342Z,97.08
2023-04-08T03:12:02.811Z,97.19
2023-04-08T03:12:56.962Z,97.17
2023-04-08T03:13:48.383Z,97.21
2023-04-08T03:14:39.897Z,97.17
2023-04-08T03:15:31.335Z,97.46
2023-04-08T03:16:22.894Z,97.23
2023-04-08T03:17:14.351Z,97.18
2023-04-08T03:18:06.094Z,97.16
2023-04-08T03:18:57.594Z,97.44
2023-04-08T03:19:49.139Z,97.24
2023-04-08T03:20:40.634Z,97.33
2023-04-08T03:21:32.606Z,97.33
2023-04-08T03:22:24.581Z,97.48
2023-04-08T03:23:16.376Z,97.23
2023-04-08T03:24:07.866Z,97.33
2023-04-08T03:24:59.246Z,97.42
2023-04-08T03:25:50.734Z,97.82
2023-04-08T03:26:44.486Z,97.71
2023-04-08T03:27:38.419Z,97.67
2023-04-08T03:28:30.070Z,97.48
2023-04-08T03:29:21.538Z,97.33
2023-04-08T03:30:13.109Z,97.32
2023-04-08T03:31:04.931Z,97.51
2023-04-08T03:31:56.766Z,97.49
2023-04-08T03:32:48.303Z,97.51
2023-04-08T03:33:39.738Z,97.40
2023-04-08T03:34:33.700Z,97.48
2023-04-08T03:35:25.330Z,97.60
2023-04-08T03:36:16.799Z,97.83
2023-04-08T03:37:12.943Z,97.74
2023-04-08T03:38:04.852Z,97.63
2023-04-08T03:38:56.366Z,97.63
2023-04-08T03:39:47.869Z,97.40
2023-04-08T03:40:43.594Z,97.59
2023-04-08T03:41:34.976Z,97.71
2023-04-08T03:42:27.135Z,97.66
2023-04-08T03:43:21.873Z,97.90
2023-04-08T03:44:13.310Z,97.80
2023-04-08T03:45:05.543Z,97.86
2023-04-08T03:45:56.964Z,97.64
2023-04-08T03:46:48.411Z,97.83
2023-04-08T03:47:41.386Z,97.79
2023-04-08T03:48:32.972Z,98.05
2023-04-08T03:49:24.799Z,97.81
2023-04-08T03:50:16.278Z,98.01
2023-04-08T03:51:09.200Z,97.89
2023-04-08T03:52:00.766Z,97.87
2023-04-08T03:52:52.503Z,98.02
2023-04-08T03:53:47.141Z,97.89
2023-04-08T03:54:38.677Z,98.12
2023-04-08T03:55:30.168Z,98.10
2023-04-08T03:56:21.856Z,97.98
2023-04-08T03:57:13.453Z,97.96
2023-04-08T03:58:05.019Z,98.04
2023-04-08T03:58:56.496Z,98.01
2023-04-08T03:59:47.906Z,98.13
2023-04-08T04:00:39.780Z,98.07
2023-04-08T04:01:32.286Z,97.97
2023-04-08T04:02:23.973Z,98.26
2023-04-08T04:03:15.740Z,97.84
2023-04-08T04:04:07.629Z,97.90
2023-04-08T04:04:59.333Z,98.11
2023-04-08T04:05:51.105Z,97.93
2023-04-08T04:06:42.618Z,97.85
2023-04-08T04:07:34.069Z,98.01
2023-04-08T04:08:25.850Z,98.09
2023-04-08T04:09:17.443Z,98.01
2023-04-08T04:10:10.345Z,98.24
2023-04-08T04:11:01.975Z,98.13
2023-04-08T04:11:53.744Z,98.45
2023-04-08T04:12:45.995Z,98.31
2023-04-08T04:13:37.509Z,98.27
2023-04-08T04:14:28.920Z,98.42
2023-04-08T04:15:20.412Z,98.49
2023-04-08T04:16:11.858Z,98.44
2023-04-08T04:17:03.401Z,98.36
2023-04-08T04:17:54.925Z,98.35
2023-04-08T04:18:46.694Z,98.59
2023-04-08T04:19:40.778Z,98.69
2023-04-08T04:20:32.374Z,98.60
2023-04-08T04:21:23.852Z,98.50
2023-04-08T04:22:16.653Z,98.65
2023-04-08T04:23:09.107Z,98.37
2023-04-08T04:24:00.828Z,98.55
2023-04-08T04:24:52.278Z,98.66
2023-04-08T04:25:44.290Z,98.58
2023-04-08T04:26:35.766Z,98.63
2023-04-08T04:27:27.193Z,98.52
2023-04-08T04:28:18.574Z,98.63
2023-04-08T04:29:10.342Z,98.61
2023-04-08T04:30:01.722Z,98.60
2023-04-08T04:30:55.306Z,98.70
2023-04-08T04:31:47.864Z,98.59
2023-04-08T04:32:39.303Z,98.34
2023-04-08T04:33:31.664Z,98.68
2023-04-08T04:34:23.470Z,98.34
2023-04-08T04:35:14.967Z,98.58
2023-04-08T04:36:08.094Z,98.44
2023-04-08T04:36:59.780Z,98.67
2023-04-08T04:37:51.858Z,98.50
2023-04-08T04:38:44.574Z,98.65
2023-04-08T04:39:36.257Z,98.45
2023-04-08T04:40:27.698Z,98.71
2023-04-08T04:41:19.105Z,98.77
2023-04-08T04:42:10.617Z,98.63
2023-04-08T04:43:02.281Z,98.71
2023-04-08T04:43:53.818Z,98.67
2023-04-08T04:44:45.277Z,98.87
2023-04-08T04:45:36.629Z,99.03
2023-04-08T04:46:28.274Z,98.83
2023-04-08T04:47:22.938Z,98.76
2023-04-08T04:48:14.425Z,99.04
2023-04-08T04:49:06.349Z,99.23
2023-04-08T04:49:57.972Z,99.23
2023-04-08T04:51:01.103Z,99.29
2023-04-08T04:51:52.969Z,99.17
2023-04-08T04:52:44.705Z,99.37
2023-04-08T04:53:40.332Z,99.33
2023-04-08T04:54:37.191Z,99.28
2023-04-08T04:55:28.660Z,99.26
2023-04-08T04:56:21.137Z,99.18
2023-04-08T04:57:12.536Z,99.41
2023-04-08T04:58:05.082Z,98.99
2023-04-08T04:58:56.618Z,99.04
2023-04-08T04:59:50.088Z,98.95
2023-04-08T05:00:41.578Z,99.27
2023-04-08T05:01:33.063Z,99.02
2023-04-08T05:02:24.743Z,99.32
2023-04-08T05:03:16.523Z,99.26
2023-04-08T05:04:10.685Z,99.02
2023-04-08T05:05:02.374Z,99.12
2023-04-08T05:05:54.600Z,99.02
2023-04-08T05:06:46.080Z,99.11
2023-04-08T05:07:38.810Z,98.88
2023-04-08T05:08:30.438Z,98.93
2023-04-08T05:09:21.869Z,99.01
2023-04-08T05:10:13.455Z,98.90
2023-04-08T05:11:12.767Z,99.09
2023-04-08T05:12:04.679Z,98.88
2023-04-08T05:12:56.168Z,98.65
2023-04-08T05:13:47.882Z,98.81
2023-04-08T05:14:41.367Z,98.61
2023-04-08T05:15:32.755Z,98.73
2023-04-08T05:16:24.219Z,98.76
2023-04-08T05:17:15.765Z,98.62
2023-04-08T05:18:07.505Z,98.69
2023-04-08T05:18:59.381Z,98.58
2023-04-08T05:19:53.146Z,98.64
2023-04-08T05:20:44.671Z,98.66
2023-04-08T05:21:36.386Z,98.32
2023-04-08T05:22:27.864Z,98.49
2023-04-08T05:23:19.274Z,98.61
2023-04-08T05:24:10.888Z,98.63
2023-04-08T05:25:02.610Z,98.52
2023-04-08T05:25:54.437Z,98.79
2023-04-08T05:26:46.376Z,98.70
2023-04-08T05:27:38.391Z,98.54
2023-04-08T05:28:29.784Z,98.44
2023-04-08T05:29:22.005Z,98.24
2023-04-08T05:30:13.637Z,98.04
2023-04-08T05:31:05.202Z,98.16
2023-04-08T05:31:59.218Z,97.84
2023-04-08T05:32:51.067Z,97.50
2023-04-08T05:33:42.659Z,97.32
2023-04-08T05:34:34.166Z,97.73
2023-04-08T05:35:25.578Z,97.07
2023-04-08T05:36:17.333Z,96.16
2023-04-08T05:37:08.829Z,95.99
2023-04-08T05:38:03.202Z,96.11
2023-04-08T05:38:54.840Z,96.13
2023-04-08T05:39:49.223Z,95.43
2023-04-08T05:40:40.809Z,95.18
2023-04-08T05:41:33.294Z,95.46
2023-04-08T05:42:24.804Z,95.39
2023-04-08T05:43:16.282Z,95.20
2023-04-08T05:44:07.764Z,94.71
2023-04-08T05:44:59.296Z,94.45
2023-04-08T05:45:51.424Z,93.63
2023-04-08T05:46:43.005Z,93.64
2023-04-08T05:47:37.512Z,93.02
2023-04-08T05:48:31.332Z,91.73
2023-04-08T05:49:23.979Z,91.97
2023-04-08T05:50:15.753Z,92.02
2023-04-08T05:51:08.739Z,92.14
2023-04-08T05:52:00.586Z,92.66
2023-04-08T05:52:54.818Z,92.32
2023-04-08T05:53:49.044Z,91.25
2023-04-08T05:54:43.805Z,91.40
2023-04-08T05:55:35.663Z,90.97
2023-04-08T05:56:27.189Z,90.87
2023-04-08T05:57:18.679Z,91.33
2023-04-08T05:58:10.121Z,90.90
2023-04-08T05:59:01.590Z,90.33
2023-04-08T05:59:53.344Z,91.05
2023-04-08T06:00:45.100Z,90.90
2023-04-08T06:01:36.650Z,90.76
2023-04-08T06:02:28.321Z,90.66
2023-04-08T06:03:21.244Z,90.87
2023-04-08T06:04:14.305Z,90.70
2023-04-08T06:05:06.550Z,90.72
2023-04-08T06:05:58.274Z,90.12
2023-04-08T06:06:49.732Z,90.09
2023-04-08T06:07:42.674Z,89.98
2023-04-08T06:08:34.110Z,89.80
2023-04-08T06:09:26.030Z,88.34
2023-04-08T06:10:20.626Z,88.04
2023-04-08T06:11:12.761Z,88.31
2023-04-08T06:12:04.611Z,88.17
2023-04-08T06:12:56.265Z,88.79
2023-04-08T06:13:50.580Z,89.08
2023-04-08T06:14:42.081Z,88.48
2023-04-08T06:15:35.869Z,88.25
2023-04-08T06:16:27.754Z,88.27
2023-04-08T06:17:19.147Z,88.66
2023-04-08T06:18:10.872Z,87.91
2023-04-08T06:19:02.352Z,87.52
2023-04-08T06:19:55.323Z,87.80
2023-04-08T06:20:46.901Z,87.92
2023-04-08T06:21:38.494Z,88.07
2023-04-08T06:22:30.347Z,87.94
2023-04-08T06:23:21.738Z,87.99
2023-04-08T06:24:13.258Z,86.85
2023-04-08T06:25:05.272Z,86.55
2023-04-08T06:25:56.766Z,86.88
2023-04-08T06:26:48.179Z,87.21
2023-04-08T06:27:39.595Z,87.92
2023-04-08T06:28:32.095Z,88.12
2023-04-08T06:29:24.814Z,87.97
2023-04-08T06:30:16.789Z,87.56
2023-04-08T06:31:08.445Z,88.16
2023-04-08T06:32:00.001Z,88.28
2023-04-08T06:32:51.600Z,87.77
2023-04-08T06:33:43.059Z,88.14
2023-04-08T06:34:34.521Z,86.62
2023-04-08T06:35:28.533Z,86.58
2023-04-08T06:36:20.419Z,86.41
2023-04-08T06:37:12.056Z,86.35
2023-04-08T06:38:04.029Z,86.13
2023-04-08T06:38:55.788Z,86.82
2023-04-08T06:39:47.550Z,87.02
2023-04-08T06:40:40.301Z,86.18
2023-04-08T06:41:31.724Z,85.77
2023-04-08T06:42:29.270Z,84.86
2023-04-08T06:43:37.957Z,85.57
2023-04-08T06:44:29.604Z,85.75
2023-04-08T06:45:21.371Z,85.90
2023-04-08T06:46:12.955Z,86.11
2023-04-08T06:47:04.472Z,85.63
2023-04-08T06:47:57.689Z,85.18
2023-04-08T06:48:50.809Z,84.14
2023-04-08T06:49:42.598Z,83.86
2023-04-08T06:50:34.138Z,82.90
2023-04-08T06:51:25.973Z,82.21
2023-04-08T06:52:18.930Z,82.24
2023-04-08T06:53:10.558Z,82.40
2023-04-08T06:54:02.238Z,82.37
2023-04-08T06:54:53.855Z,82.64
2023-04-08T06:55:46.481Z,83.13
2023-04-08T06:56:37.989Z,83.18
2023-04-08T06:57:29.493Z,82.42
2023-04-08T06:58:21.335Z,82.36
2023-04-08T06:59:13.114Z,82.57
2023-04-08T07:00:05.333Z,82.62
2023-04-08T07:00:57.231Z,82.73
2023-04-08T07:01:48.732Z,83.24
2023-04-08T07:02:40.347Z,83.67
2023-04-08T07:03:32.132Z,84.07
2023-04-08T07:04:23.922Z,83.08
2023-04-08T07:05:16.598Z,83.10
2023-04-08T07:06:10.475Z,83.26
2023-04-08T07:07:02.428Z,83.46
2023-04-08T07:07:54.004Z,83.30
2023-04-08T07:08:45.741Z,83.58
2023-04-08T07:09:37.099Z,83.28
2023-04-08T07:10:28.960Z,82.34
2023-04-08T07:11:21.427Z,81.40
2023-04-08T07:12:13.025Z,81.56
2023-04-08T07:13:04.637Z,80.97
2023-04-08T07:13:56.232Z,81.67
2023-04-08T07:14:47.829Z,81.00
2023-04-08T07:15:39.472Z,81.55
2023-04-08T07:16:30.931Z,81.90
2023-04-08T07:17:22.590Z,81.31
2023-04-08T07:18:14.113Z,82.08
2023-04-08T07:19:05.617Z,81.35
2023-04-08T07:19:57.867Z,81.41
2023-04-08T07:20:53.962Z,82.07
2023-04-08T07:21:45.864Z,81.62
2023-04-08T07:22:40.373Z,80.23
2023-04-08T07:23:31.756Z,80.21
2023-04-08T07:24:23.689Z,80.66
2023-04-08T07:25:15.991Z,80.29
2023-04-08T07:26:07.827Z,80.96
2023-04-08T07:26:59.520Z,81.36
2023-04-08T07:27:52.686Z,81.96
2023-04-08T07:28:46.220Z,81.87
2023-04-08T07:29:37.855Z,80.47
2023-04-08T07:30:29.314Z,80.56
2023-04-08T07:31:21.022Z,81.34
2023-04-08T07:32:12.710Z,80.94
2023-04-08T07:33:04.410Z,81.29
2023-04-08T07:33:56.422Z,82.49
2023-04-08T07:34:48.340Z,82.60
2023-04-08T07:35:42.370Z,81.88
2023-04-08T07:36:34.005Z,82.32
2023-04-08T07:37:25.905Z,82.43
2023-04-08T07:38:17.330Z,81.53
2023-04-08T07:39:08.915Z,81.16
2023-04-08T07:40:00.437Z,81.33
2023-04-08T07:40:52.039Z,81.31
2023-04-08T07:41:43.419Z,81.31
2023-04-08T07:42:34.900Z,81.69
2023-04-08T07:43:26.706Z,81.29
2023-04-08T07:44:19.883Z,80.56
2023-04-08T07:45:12.011Z,80.91
2023-04-08T07:46:06.754Z,80.61
2023-04-08T07:46:58.330Z,79.93
2023-04-08T07:47:49.837Z,79.50
2023-04-08T07:48:41.409Z,80.52
2023-04-08T07:49:33.086Z,80.10
2023-04-08T07:50:24.594Z,80.06
2023-04-08T07:51:16.175Z,79.92
2023-04-08T07:52:12.229Z,79.89
2023-04-08T07:53:03.960Z,79.79
2023-04-08T07:53:55.782Z,80.12
2023-04-08T07:54:47.218Z,80.21
2023-04-08T07:55:40.280Z,79.75
2023-04-08T07:56:31.969Z,80.25
2023-04-08T07:57:23.532Z,79.85
2023-04-08T07:58:15.114Z,80.43
2023-04-08T07:59:07.156Z,80.21
2023-04-08T07:59:58.833Z,80.43
2023-04-08T08:00:50.426Z,80.75
2023-04-08T08:01:42.277Z,81.44
2023-04-08T08:02:34.386Z,81.92
2023-04-08T08:03:26.609Z,81.45
2023-04-08T08:04:18.572Z,81.13
2023-04-08T08:05:10.397Z,80.90
2023-04-08T08:06:02.033Z,80.06
2023-04-08T08:06:53.639Z,80.08
2023-04-08T08:07:45.455Z,79.55
2023-04-08T08:08:36.969Z,80.14
2023-04-08T08:09:29.248Z,80.16
2023-04-08T08:10:21.777Z,79.61
2023-04-08T08:11:13.333Z,79.22
2023-04-08T08:12:04.851Z,78.72
2023-04-08T08:12:56.241Z,78.93
2023-04-08T08:13:48.009Z,79.07
2023-04-08T08:14:39.733Z,79.02
2023-04-08T08:15:31.601Z,78.24
2023-04-08T08:16:23.138Z,78.95
2023-04-08T08:17:14.872Z,79.12
2023-04-08T08:18:06.410Z,78.44
2023-04-08T08:18:58.414Z,78.57
2023-04-08T08:19:50.099Z,78.72
2023-04-08T08:20:41.720Z,78.53
2023-04-08T08:21:35.538Z,77.98
2023-04-08T08:22:27.598Z,78.26
2023-04-08T08:23:19.101Z,77.84
2023-04-08T08:24:10.731Z,77.79
2023-04-08T08:25:02.445Z,78.44
2023-04-08T08:26:10.672Z,78.35
2023-04-08T08:27:04.364Z,78.75
2023-04-08T08:27:57.925Z,78.67
2023-04-08T08:28:51.781Z,78.96
2023-04-08T08:29:43.157Z,78.62
2023-04-08T08:30:34.968Z,78.73
2023-04-08T08:31:26.758Z,78.50
2023-04-08T08:32:18.964Z,78.76
2023-04-08T08:33:10.625Z,79.50
2023-04-08T08:34:02.575Z,79.07
2023-04-08T08:34:54.073Z,79.63
2023-04-08T08:35:45.571Z,80.26
2023-04-08T08:36:36.983Z,78.51
2023-04-08T08:37:31.462Z,78.78
2023-04-08T08:38:23.092Z,78.33
2023-04-08T08:39:14.608Z,78.22
2023-04-08T08:40:06.600Z,77.86
2023-04-08T08:41:04.423Z,77.60
2023-04-08T08:41:58.484Z,77.82
2023-04-08T08:42:52.400Z,77.77
2023-04-08T08:43:45.010Z,77.94
2023-04-08T08:44:36.635Z,77.74
2023-04-08T08:45:28.306Z,77.97
2023-04-08T08:46:19.789Z,78.04
2023-04-08T08:47:14.278Z,78.40
2023-04-08T08:48:08.753Z,78.20
2023-04-08T08:49:06.017Z,78.34
2023-04-08T08:50:01.243Z,78.82
2023-04-08T08:50:55.089Z,78.12
2023-04-08T08:51:49.269Z,77.78
2023-04-08T08:52:52.271Z,77.87
2023-04-08T08:53:45.293Z,78.26
2023-04-08T08:54:37.990Z,78.27
2023-04-08T08:55:53.173Z,78.62
2023-04-08T08:56:45.248Z,78.40
2023-04-08T08:57:37.196Z,77.58
2023-04-08T08:58:28.712Z,77.35
2023-04-08T08:59:20.549Z,78.09
2023-04-08T09:00:16.319Z,77.03
2023-04-08T09:01:34.669Z,76.64
2023-04-08T09:02:32.225Z,75.97
2023-04-08T09:03:29.103Z,76.05
2023-04-08T09:04:22.805Z,76.32
2023-04-08T09:05:14.570Z,77.31
2023-04-08T09:06:06.200Z,76.97
2023-04-08T09:07:13.644Z,76.36
2023-04-08T09:08:07.722Z,76.82
2023-04-08T09:08:59.193Z,78.27
2023-04-08T09:09:52.880Z,78.26
2023-04-08T09:10:44.377Z,77.96
2023-04-08T09:11:43.978Z,77.67
2023-04-08T09:12:35.580Z,77.69
2023-04-08T09:13:38.999Z,78.25
2023-04-08T09:14:32.898Z,77.87
2023-04-08T09:15:26.556Z,76.23
2023-04-08T09:16:20.348Z,76.41
2023-04-08T09:17:12.339Z,76.50
2023-04-08T09:18:22.425Z,75.75
2023-04-08T09:19:14.004Z,75.17
2023-04-08T09:20:12.079Z,75.55
2023-04-08T09:21:05.423Z,75.81
2023-04-08T09:22:07.384Z,75.59
2023-04-08T09:23:02.564Z,75.95
2023-04-08T09:23:54.196Z,76.53
2023-04-08T09:24:45.937Z,75.52
2023-04-08T09:25:38.507Z,76.84
2023-04-08T09:26:30.316Z,76.62
2023-04-08T09:27:35.602Z,76.17
2023-04-08T09:28:27.534Z,75.59
2023-04-08T09:29:26.317Z,75.39
2023-04-08T09:30:19.270Z,75.46
2023-04-08T09:31:29.039Z,75.92
2023-04-08T09:32:20.778Z,75.36
2023-04-08T09:33:12.624Z,74.77
2023-04-08T09:34:11.891Z,73.74
2023-04-08T09:35:04.796Z,73.78
2023-04-08T09:35:58.317Z,74.04
2023-04-08T09:36:50.823Z,73.59
2023-04-08T09:37:42.278Z,73.41
2023-04-08T09:38:36.294Z,72.12
2023-04-08T09:39:27.728Z,70.74
2023-04-08T09:40:19.405Z,70.61
2023-04-08T09:41:16.213Z,70.82
2023-04-08T09:42:12.072Z,70.62
2023-04-08T09:43:09.199Z,70.49
2023-04-08T09:44:07.702Z,70.62
2023-04-08T09:45:04.299Z,71.33
2023-04-08T09:46:00.960Z,70.33
2023-04-08T09:47:09.985Z,70.63
2023-04-08T09:48:13.835Z,70.61
2023-04-08T09:49:13.918Z,71.33
2023-04-08T09:50:09.288Z,71.95
2023-04-08T09:51:01.236Z,71.67
2023-04-08T09:52:14.118Z,70.82
2023-04-08T09:53:15.563Z,69.33
2023-04-08T09:54:14.940Z,70.29
2023-04-08T09:55:09.705Z,70.67
2023-04-08T09:56:06.709Z,70.26
2023-04-08T09:57:09.949Z,69.66
2023-04-08T09:58:08.714Z,68.80
2023-04-08T09:59:09.399Z,68.91
2023-04-08T10:00:09.719Z,68.46
2023-04-08T10:01:09.982Z,68.31
2023-04-08T10:02:09.576Z,67.55
2023-04-08T10:03:38.602Z,67.05
2023-04-08T10:04:38.517Z,67.28
2023-04-08T10:05:36.559Z,67.80
2023-04-08T10:06:31.342Z,67.29
2023-04-08T10:07:23.150Z,68.56
2023-04-08T10:08:16.333Z,68.11
2023-04-08T10:09:10.455Z,67.62
2023-04-08T10:10:03.168Z,67.62
2023-04-08T10:10:56.279Z,67.52
2023-04-08T10:11:48.973Z,67.14
2023-04-08T10:12:41.280Z,67.68
2023-04-08T10:13:34.365Z,67.99
2023-04-08T10:14:28.555Z,68.42
2023-04-08T10:15:30.361Z,68.72
2023-04-08T10:16:25.787Z,68.38
2023-04-08T10:17:36.875Z,67.09
2023-04-08T10:18:32.917Z,69.46
2023-04-08T10:19:42.071Z,67.60
2023-04-08T10:20:36.359Z,66.90
2023-04-08T10:21:39.936Z,68.03
2023-04-08T10:22:34.237Z,65.75
2023-04-08T10:23:53.053Z,66.00
2023-04-08T10:25:27.187Z,66.27
2023-04-08T10:26:33.506Z,66.08
2023-04-08T10:27:42.660Z,65.87
2023-04-08T10:28:34.420Z,65.68
2023-04-08T10:29:28.633Z,66.27
2023-04-08T10:30:26.618Z,66.50
2023-04-08T10:31:22.648Z,65.42
2023-04-08T10:32:30.138Z,65.77
2023-04-08T10:33:25.648Z,65.64
2023-04-08T10:34:21.695Z,66.00
2023-04-08T10:35:14.293Z,65.71
2023-04-08T10:36:13.267Z,65.77
2023-04-08T10:37:09.214Z,65.12
2023-04-08T10:38:02.226Z,66.42
2023-04-08T10:38:57.119Z,65.34
2023-04-08T10:39:51.936Z,65.02
2023-04-08T10:40:44.914Z,65.77
2023-04-08T10:41:44.934Z,64.43
2023-04-08T10:42:36.426Z,64.97
2023-04-08T10:43:33.903Z,64.93
2023-04-08T10:44:29.259Z,65.69
2023-04-08T10:45:20.797Z,65.98
2023-04-08T10:46:12.495Z,66.09
2023-04-08T10:47:04.170Z,64.67
2023-04-08T10:47:55.880Z,65.50
2023-04-08T10:49:00.159Z,66.55
2023-04-08T10:49:53.027Z,66.32
2023-04-08T10:50:53.405Z,64.94
2023-04-08T10:51:47.302Z,64.92
2023-04-08T10:52:53.016Z,64.16
2023-04-08T10:53:44.616Z,64.03
2023-04-08T10:54:36.657Z,64.33
2023-04-08T10:55:28.916Z,64.53
2023-04-08T10:56:20.445Z,64.60
2023-04-08T10:57:11.957Z,64.77
2023-04-08T10:58:07.942Z,63.61
2023-04-08T10:59:01.892Z,63.57
2023-04-08T10:59:53.508Z,63.76
2023-04-08T11:00:44.958Z,63.74
2023-04-08T11:01:41.253Z,62.95
2023-04-08T11:02:34.140Z,63.31
2023-04-08T11:03:27.665Z,63.06
2023-04-08T11:04:19.701Z,63.42
2023-04-08T11:05:12.264Z,62.57
2023-04-08T11:06:05.112Z,63.23
2023-04-08T11:06:56.672Z,64.05
2023-04-08T11:07:48.166Z,63.25
2023-04-08T11:08:39.913Z,62.67
2023-04-08T11:09:34.261Z,62.69
2023-04-08T11:10:27.759Z,63.24
2023-04-08T11:11:19.550Z,62.45
2023-04-08T11:12:18.041Z,62.61
2023-04-08T11:13:12.851Z,62.56
2023-04-08T11:14:05.570Z,63.13
2023-04-08T11:14:59.384Z,62.62
2023-04-08T11:15:52.376Z,63.20
2023-04-08T11:16:46.223Z,63.51
2023-04-08T11:17:40.300Z,62.80
2023-04-08T11:18:34.183Z,62.66
2023-04-08T11:19:25.718Z,62.20
2023-04-08T11:20:17.784Z,61.92
2023-04-08T11:21:10.956Z,61.81
2023-04-08T11:22:02.848Z,62.53
2023-04-08T11:22:55.187Z,62.55
2023-04-08T11:23:51.738Z,64.37
2023-04-08T11:24:44.171Z,63.10
2023-04-08T11:25:40.438Z,64.25
2023-04-08T11:26:33.366Z,63.39
2023-04-08T11:27:26.178Z,62.45
2023-04-08T11:28:18.740Z,62.65
2023-04-08T11:29:14.579Z,62.53
2023-04-08T11:30:10.559Z,60.69
2023-04-08T11:31:05.693Z,60.67
2023-04-08T11:31:57.422Z,61.29
2023-04-08T11:32:49.203Z,62.17